sensor_id;sensor_type;location;lat;lon;timestamp;P1;durP1;ratioP1;P2;durP2;ratioP2
18443;SDS011;9350;53.176;8.194;2022-09-12T00:01:02;7.93;;;6.78;;
18443;SDS011;9350;53.176;8.194;2022-09-12T00:03:34;7.82;;;6.85;;
18443;SDS011;9350;53.176;8.194;2022-09-12T00:06:06;8.82;;;6.25;;
18443;SDS011;9350;53.176;8.194;2022-09-12T00:08:34;7.47;;;6.70;;
18443;SDS011;9350;53.176;8.194;2022-09-12T00:11:03;8.63;;;6.30;;
18443;SDS011;9350;53.176;8.194;2022-09-12T00:13:31;7.35;;;6.65;;
18443;SDS011;9350;53.176;8.194;2022-09-12T00:15:58;6.53;;;5.90;;
18443;SDS011;9350;53.176;8.194;2022-09-12T00:18:25;7.28;;;6.28;;
18443;SDS011;9350;53.176;8.194;2022-09-12T00:20:53;7.30;;;6.60;;
18443;SDS011;9350;53.176;8.194;2022-09-12T00:23:19;7.57;;;6.75;;
18443;SDS011;9350;53.176;8.194;2022-09-12T00:25:47;6.65;;;5.95;;
18443;SDS011;9350;53.176;8.194;2022-09-12T00:28:15;8.23;;;6.57;;
18443;SDS011;9350;53.176;8.194;2022-09-12T00:30:43;8.45;;;6.72;;
18443;SDS011;9350;53.176;8.194;2022-09-12T00:33:11;7.32;;;6.47;;
18443;SDS011;9350;53.176;8.194;2022-09-12T00:35:42;8.55;;;6.72;;
18443;SDS011;9350;53.176;8.194;2022-09-12T00:38:11;7.78;;;6.93;;
18443;SDS011;9350;53.176;8.194;2022-09-12T00:40:39;7.43;;;6.63;;
18443;SDS011;9350;53.176;8.194;2022-09-12T00:43:09;9.45;;;7.07;;
18443;SDS011;9350;53.176;8.194;2022-09-12T00:45:38;7.72;;;6.95;;
18443;SDS011;9350;53.176;8.194;2022-09-12T00:48:07;9.35;;;7.15;;
18443;SDS011;9350;53.176;8.194;2022-09-12T00:50:46;8.55;;;6.90;;
18443;SDS011;9350;53.176;8.194;2022-09-12T00:53:15;9.75;;;7.07;;
18443;SDS011;9350;53.176;8.194;2022-09-12T00:55:44;9.85;;;8.00;;
18443;SDS011;9350;53.176;8.194;2022-09-12T00:58:15;8.90;;;7.40;;
18443;SDS011;9350;53.176;8.194;2022-09-12T01:00:45;8.88;;;7.78;;
18443;SDS011;9350;53.176;8.194;2022-09-12T01:03:13;12.32;;;7.80;;
18443;SDS011;9350;53.176;8.194;2022-09-12T01:05:43;10.10;;;7.45;;
18443;SDS011;9350;53.176;8.194;2022-09-12T01:08:16;10.30;;;8.10;;
18443;SDS011;9350;53.176;8.194;2022-09-12T01:10:43;9.43;;;7.45;;
18443;SDS011;9350;53.176;8.194;2022-09-12T01:13:09;9.82;;;7.88;;
18443;SDS011;9350;53.176;8.194;2022-09-12T01:15:37;11.07;;;7.07;;
18443;SDS011;9350;53.176;8.194;2022-09-12T01:18:08;8.57;;;7.43;;
18443;SDS011;9350;53.176;8.194;2022-09-12T01:29:55;9.18;;;7.85;;
18443;SDS011;9350;53.176;8.194;2022-09-12T01:32:54;10.18;;;6.93;;
18443;SDS011;9350;53.176;8.194;2022-09-12T01:35:37;7.50;;;6.70;;
18443;SDS011;9350;53.176;8.194;2022-09-12T01:38:21;8.32;;;7.07;;
18443;SDS011;9350;53.176;8.194;2022-09-12T01:40:53;8.60;;;7.30;;
18443;SDS011;9350;53.176;8.194;2022-09-12T01:43:29;9.02;;;7.60;;
18443;SDS011;9350;53.176;8.194;2022-09-12T01:46:00;8.48;;;7.50;;
18443;SDS011;9350;53.176;8.194;2022-09-12T01:48:33;9.13;;;7.57;;
18443;SDS011;9350;53.176;8.194;2022-09-12T01:51:05;8.18;;;7.35;;
18443;SDS011;9350;53.176;8.194;2022-09-12T01:53:39;8.55;;;7.22;;
18443;SDS011;9350;53.176;8.194;2022-09-12T01:56:10;9.60;;;7.43;;
18443;SDS011;9350;53.176;8.194;2022-09-12T01:58:46;8.43;;;7.35;;
18443;SDS011;9350;53.176;8.194;2022-09-12T02:01:18;9.18;;;7.28;;
18443;SDS011;9350;53.176;8.194;2022-09-12T02:03:50;10.48;;;8.20;;
18443;SDS011;9350;53.176;8.194;2022-09-12T02:06:21;10.20;;;7.97;;
18443;SDS011;9350;53.176;8.194;2022-09-12T02:08:52;8.48;;;7.20;;
18443;SDS011;9350;53.176;8.194;2022-09-12T02:11:22;9.98;;;7.63;;
18443;SDS011;9350;53.176;8.194;2022-09-12T02:13:51;8.98;;;8.00;;
18443;SDS011;9350;53.176;8.194;2022-09-12T02:16:21;10.73;;;8.45;;
18443;SDS011;9350;53.176;8.194;2022-09-12T02:18:55;10.95;;;8.75;;
18443;SDS011;9350;53.176;8.194;2022-09-12T02:21:25;9.40;;;7.68;;
18443;SDS011;9350;53.176;8.194;2022-09-12T02:23:57;12.30;;;8.80;;
18443;SDS011;9350;53.176;8.194;2022-09-12T02:26:28;9.73;;;7.82;;
18443;SDS011;9350;53.176;8.194;2022-09-12T02:28:59;9.48;;;8.02;;
18443;SDS011;9350;53.176;8.194;2022-09-12T02:31:27;10.50;;;8.27;;
18443;SDS011;9350;53.176;8.194;2022-09-12T02:34:03;9.75;;;7.65;;
18443;SDS011;9350;53.176;8.194;2022-09-12T02:36:36;9.95;;;7.82;;
18443;SDS011;9350;53.176;8.194;2022-09-12T02:39:08;9.52;;;7.90;;
18443;SDS011;9350;53.176;8.194;2022-09-12T02:41:34;8.70;;;7.00;;
18443;SDS011;9350;53.176;8.194;2022-09-12T02:44:02;12.15;;;8.25;;
18443;SDS011;9350;53.176;8.194;2022-09-12T02:46:31;13.02;;;8.55;;
18443;SDS011;9350;53.176;8.194;2022-09-12T02:49:03;10.88;;;8.30;;
18443;SDS011;9350;53.176;8.194;2022-09-12T02:51:30;9.45;;;7.70;;
18443;SDS011;9350;53.176;8.194;2022-09-12T02:53:57;9.45;;;8.23;;
18443;SDS011;9350;53.176;8.194;2022-09-12T02:56:26;9.23;;;8.10;;
18443;SDS011;9350;53.176;8.194;2022-09-12T02:58:54;8.27;;;7.45;;
18443;SDS011;9350;53.176;8.194;2022-09-12T03:01:27;9.38;;;7.57;;
18443;SDS011;9350;53.176;8.194;2022-09-12T03:04:08;8.30;;;7.05;;
18443;SDS011;9350;53.176;8.194;2022-09-12T03:07:00;13.77;;;7.35;;
18443;SDS011;9350;53.176;8.194;2022-09-12T03:09:35;9.52;;;7.50;;
18443;SDS011;9350;53.176;8.194;2022-09-12T03:12:09;12.57;;;7.97;;
18443;SDS011;9350;53.176;8.194;2022-09-12T03:14:54;7.75;;;6.90;;
18443;SDS011;9350;53.176;8.194;2022-09-12T03:17:29;10.68;;;7.68;;
18443;SDS011;9350;53.176;8.194;2022-09-12T03:20:08;9.88;;;7.97;;
18443;SDS011;9350;53.176;8.194;2022-09-12T03:22:41;9.68;;;7.63;;
18443;SDS011;9350;53.176;8.194;2022-09-12T03:25:16;8.65;;;7.38;;
18443;SDS011;9350;53.176;8.194;2022-09-12T03:27:48;8.55;;;7.57;;
18443;SDS011;9350;53.176;8.194;2022-09-12T03:30:19;12.25;;;8.05;;
18443;SDS011;9350;53.176;8.194;2022-09-12T03:32:47;10.77;;;7.97;;
18443;SDS011;9350;53.176;8.194;2022-09-12T03:35:17;9.82;;;7.25;;
18443;SDS011;9350;53.176;8.194;2022-09-12T03:37:46;9.10;;;7.25;;
18443;SDS011;9350;53.176;8.194;2022-09-12T03:40:13;9.80;;;7.70;;
18443;SDS011;9350;53.176;8.194;2022-09-12T03:42:40;9.15;;;8.18;;
18443;SDS011;9350;53.176;8.194;2022-09-12T03:45:08;9.02;;;7.50;;
18443;SDS011;9350;53.176;8.194;2022-09-12T03:47:35;7.97;;;7.18;;
18443;SDS011;9350;53.176;8.194;2022-09-12T03:50:03;8.25;;;7.03;;
18443;SDS011;9350;53.176;8.194;2022-09-12T03:52:38;8.93;;;7.65;;
18443;SDS011;9350;53.176;8.194;2022-09-12T03:55:05;9.07;;;7.70;;
18443;SDS011;9350;53.176;8.194;2022-09-12T03:57:32;10.02;;;8.63;;
18443;SDS011;9350;53.176;8.194;2022-09-12T03:59:59;9.05;;;7.82;;
18443;SDS011;9350;53.176;8.194;2022-09-12T04:02:26;9.52;;;8.05;;
18443;SDS011;9350;53.176;8.194;2022-09-12T04:04:53;10.52;;;8.27;;
18443;SDS011;9350;53.176;8.194;2022-09-12T04:07:20;8.13;;;7.15;;
18443;SDS011;9350;53.176;8.194;2022-09-12T04:09:48;9.13;;;7.50;;
18443;SDS011;9350;53.176;8.194;2022-09-12T04:12:15;11.52;;;7.80;;
18443;SDS011;9350;53.176;8.194;2022-09-12T04:14:42;7.60;;;6.80;;
18443;SDS011;9350;53.176;8.194;2022-09-12T04:17:08;10.95;;;7.93;;
18443;SDS011;9350;53.176;8.194;2022-09-12T04:19:35;8.00;;;6.80;;
18443;SDS011;9350;53.176;8.194;2022-09-12T04:22:03;9.07;;;7.50;;
18443;SDS011;9350;53.176;8.194;2022-09-12T04:24:29;12.52;;;7.72;;
18443;SDS011;9350;53.176;8.194;2022-09-12T04:26:58;8.40;;;7.50;;
18443;SDS011;9350;53.176;8.194;2022-09-12T04:29:25;9.88;;;8.40;;
18443;SDS011;9350;53.176;8.194;2022-09-12T04:31:51;8.80;;;7.35;;
18443;SDS011;9350;53.176;8.194;2022-09-12T04:34:18;9.93;;;7.93;;
18443;SDS011;9350;53.176;8.194;2022-09-12T04:36:45;11.02;;;7.75;;
18443;SDS011;9350;53.176;8.194;2022-09-12T04:39:11;10.82;;;7.57;;
18443;SDS011;9350;53.176;8.194;2022-09-12T04:47:54;9.88;;;7.97;;
18443;SDS011;9350;53.176;8.194;2022-09-12T04:50:21;9.43;;;7.53;;
18443;SDS011;9350;53.176;8.194;2022-09-12T04:52:48;11.00;;;7.55;;
18443;SDS011;9350;53.176;8.194;2022-09-12T04:55:15;9.05;;;7.40;;
18443;SDS011;9350;53.176;8.194;2022-09-12T04:57:42;12.00;;;7.35;;
18443;SDS011;9350;53.176;8.194;2022-09-12T05:00:09;10.88;;;7.97;;
18443;SDS011;9350;53.176;8.194;2022-09-12T05:02:38;9.07;;;8.18;;
18443;SDS011;9350;53.176;8.194;2022-09-12T05:05:07;10.98;;;8.52;;
18443;SDS011;9350;53.176;8.194;2022-09-12T05:07:34;10.85;;;8.27;;
18443;SDS011;9350;53.176;8.194;2022-09-12T05:10:01;9.77;;;8.10;;
18443;SDS011;9350;53.176;8.194;2022-09-12T05:12:28;11.73;;;9.05;;
18443;SDS011;9350;53.176;8.194;2022-09-12T05:14:55;12.02;;;9.25;;
18443;SDS011;9350;53.176;8.194;2022-09-12T05:17:22;12.65;;;9.48;;
18443;SDS011;9350;53.176;8.194;2022-09-12T05:19:49;14.57;;;9.82;;
18443;SDS011;9350;53.176;8.194;2022-09-12T05:22:17;11.98;;;9.40;;
18443;SDS011;9350;53.176;8.194;2022-09-12T05:24:44;10.65;;;9.20;;
18443;SDS011;9350;53.176;8.194;2022-09-12T05:27:12;12.02;;;9.38;;
18443;SDS011;9350;53.176;8.194;2022-09-12T05:29:39;11.63;;;9.40;;
18443;SDS011;9350;53.176;8.194;2022-09-12T05:32:07;11.25;;;9.15;;
18443;SDS011;9350;53.176;8.194;2022-09-12T05:34:34;15.07;;;8.63;;
18443;SDS011;9350;53.176;8.194;2022-09-12T05:37:01;11.18;;;8.80;;
18443;SDS011;9350;53.176;8.194;2022-09-12T05:39:30;11.32;;;9.55;;
18443;SDS011;9350;53.176;8.194;2022-09-12T05:41:56;11.43;;;9.02;;
18443;SDS011;9350;53.176;8.194;2022-09-12T05:44:23;13.35;;;9.88;;
18443;SDS011;9350;53.176;8.194;2022-09-12T05:46:50;13.77;;;9.98;;
18443;SDS011;9350;53.176;8.194;2022-09-12T05:49:17;12.40;;;9.52;;
18443;SDS011;9350;53.176;8.194;2022-09-12T05:51:45;12.45;;;10.05;;
18443;SDS011;9350;53.176;8.194;2022-09-12T05:54:12;14.75;;;10.60;;
18443;SDS011;9350;53.176;8.194;2022-09-12T05:56:42;14.75;;;10.52;;
18443;SDS011;9350;53.176;8.194;2022-09-12T05:59:10;18.88;;;11.05;;
18443;SDS011;9350;53.176;8.194;2022-09-12T06:01:38;14.35;;;11.07;;
18443;SDS011;9350;53.176;8.194;2022-09-12T06:04:05;14.57;;;10.63;;
18443;SDS011;9350;53.176;8.194;2022-09-12T06:06:34;16.63;;;10.93;;
18443;SDS011;9350;53.176;8.194;2022-09-12T06:09:03;15.35;;;11.43;;
18443;SDS011;9350;53.176;8.194;2022-09-12T06:11:31;14.15;;;11.05;;
18443;SDS011;9350;53.176;8.194;2022-09-12T06:14:00;17.75;;;11.85;;
18443;SDS011;9350;53.176;8.194;2022-09-12T06:16:28;16.70;;;11.75;;
18443;SDS011;9350;53.176;8.194;2022-09-12T06:18:58;17.13;;;12.48;;
18443;SDS011;9350;53.176;8.194;2022-09-12T06:21:26;18.80;;;12.68;;
18443;SDS011;9350;53.176;8.194;2022-09-12T06:23:54;18.58;;;13.13;;
18443;SDS011;9350;53.176;8.194;2022-09-12T06:26:23;17.63;;;12.20;;
18443;SDS011;9350;53.176;8.194;2022-09-12T06:28:50;18.48;;;13.32;;
18443;SDS011;9350;53.176;8.194;2022-09-12T06:31:21;22.50;;;14.70;;
18443;SDS011;9350;53.176;8.194;2022-09-12T06:33:49;20.48;;;14.80;;
18443;SDS011;9350;53.176;8.194;2022-09-12T06:36:19;21.90;;;15.15;;
18443;SDS011;9350;53.176;8.194;2022-09-12T06:38:46;26.40;;;16.83;;
18443;SDS011;9350;53.176;8.194;2022-09-12T06:41:18;24.13;;;16.58;;
18443;SDS011;9350;53.176;8.194;2022-09-12T06:43:44;28.63;;;16.88;;
18443;SDS011;9350;53.176;8.194;2022-09-12T06:46:11;25.33;;;17.27;;
18443;SDS011;9350;53.176;8.194;2022-09-12T06:48:39;25.60;;;17.35;;
18443;SDS011;9350;53.176;8.194;2022-09-12T06:51:08;26.50;;;18.33;;
18443;SDS011;9350;53.176;8.194;2022-09-12T06:53:37;28.55;;;17.98;;
18443;SDS011;9350;53.176;8.194;2022-09-12T06:56:05;30.95;;;20.15;;
18443;SDS011;9350;53.176;8.194;2022-09-12T06:58:34;32.25;;;19.95;;
18443;SDS011;9350;53.176;8.194;2022-09-12T07:01:03;31.75;;;21.05;;
18443;SDS011;9350;53.176;8.194;2022-09-12T07:03:31;35.33;;;21.48;;
18443;SDS011;9350;53.176;8.194;2022-09-12T07:06:02;33.67;;;21.05;;
18443;SDS011;9350;53.176;8.194;2022-09-12T07:08:30;32.22;;;20.92;;
18443;SDS011;9350;53.176;8.194;2022-09-12T07:10:57;37.13;;;22.23;;
18443;SDS011;9350;53.176;8.194;2022-09-12T07:13:25;34.80;;;21.30;;
18443;SDS011;9350;53.176;8.194;2022-09-12T07:15:52;32.22;;;20.48;;
18443;SDS011;9350;53.176;8.194;2022-09-12T07:18:18;33.55;;;20.83;;
18443;SDS011;9350;53.176;8.194;2022-09-12T07:20:45;32.45;;;19.60;;
18443;SDS011;9350;53.176;8.194;2022-09-12T07:23:13;33.40;;;20.35;;
18443;SDS011;9350;53.176;8.194;2022-09-12T07:25:40;32.30;;;19.45;;
18443;SDS011;9350;53.176;8.194;2022-09-12T07:28:06;34.95;;;19.50;;
18443;SDS011;9350;53.176;8.194;2022-09-12T07:30:35;36.20;;;20.60;;
18443;SDS011;9350;53.176;8.194;2022-09-12T07:33:02;33.63;;;19.42;;
18443;SDS011;9350;53.176;8.194;2022-09-12T07:35:30;35.08;;;19.92;;
18443;SDS011;9350;53.176;8.194;2022-09-12T07:37:58;30.85;;;20.30;;
18443;SDS011;9350;53.176;8.194;2022-09-12T07:40:26;30.70;;;19.60;;
18443;SDS011;9350;53.176;8.194;2022-09-12T07:42:53;30.50;;;19.55;;
18443;SDS011;9350;53.176;8.194;2022-09-12T07:45:20;33.90;;;19.80;;
18443;SDS011;9350;53.176;8.194;2022-09-12T07:47:46;38.28;;;21.35;;
18443;SDS011;9350;53.176;8.194;2022-09-12T07:50:13;36.83;;;20.40;;
18443;SDS011;9350;53.176;8.194;2022-09-12T07:52:40;32.53;;;19.60;;
18443;SDS011;9350;53.176;8.194;2022-09-12T07:55:07;30.73;;;18.75;;
18443;SDS011;9350;53.176;8.194;2022-09-12T07:57:35;27.83;;;18.80;;
18443;SDS011;9350;53.176;8.194;2022-09-12T08:00:02;30.02;;;19.45;;
18443;SDS011;9350;53.176;8.194;2022-09-12T08:02:30;30.70;;;19.13;;
18443;SDS011;9350;53.176;8.194;2022-09-12T08:04:57;29.52;;;17.25;;
18443;SDS011;9350;53.176;8.194;2022-09-12T08:07:23;31.23;;;18.20;;
18443;SDS011;9350;53.176;8.194;2022-09-12T08:09:50;25.33;;;16.80;;
18443;SDS011;9350;53.176;8.194;2022-09-12T08:12:17;31.40;;;17.60;;
18443;SDS011;9350;53.176;8.194;2022-09-12T08:14:45;28.08;;;18.25;;
18443;SDS011;9350;53.176;8.194;2022-09-12T08:17:12;28.48;;;17.92;;
18443;SDS011;9350;53.176;8.194;2022-09-12T08:19:39;28.38;;;17.50;;
18443;SDS011;9350;53.176;8.194;2022-09-12T08:22:06;28.20;;;17.98;;
18443;SDS011;9350;53.176;8.194;2022-09-12T08:24:33;30.05;;;17.92;;
18443;SDS011;9350;53.176;8.194;2022-09-12T08:27:00;32.15;;;18.13;;
18443;SDS011;9350;53.176;8.194;2022-09-12T08:29:27;30.48;;;18.42;;
18443;SDS011;9350;53.176;8.194;2022-09-12T08:31:55;28.25;;;18.48;;
18443;SDS011;9350;53.176;8.194;2022-09-12T08:34:22;32.97;;;19.52;;
18443;SDS011;9350;53.176;8.194;2022-09-12T08:36:50;34.33;;;19.75;;
18443;SDS011;9350;53.176;8.194;2022-09-12T08:39:18;32.42;;;20.40;;
18443;SDS011;9350;53.176;8.194;2022-09-12T08:41:46;33.03;;;19.40;;
18443;SDS011;9350;53.176;8.194;2022-09-12T08:44:29;29.65;;;19.35;;
18443;SDS011;9350;53.176;8.194;2022-09-12T08:47:13;40.35;;;21.25;;
18443;SDS011;9350;53.176;8.194;2022-09-12T08:49:47;31.60;;;20.13;;
18443;SDS011;9350;53.176;8.194;2022-09-12T08:52:21;33.13;;;21.35;;
18443;SDS011;9350;53.176;8.194;2022-09-12T08:54:52;31.92;;;20.05;;
18443;SDS011;9350;53.176;8.194;2022-09-12T08:57:20;35.25;;;20.00;;
18443;SDS011;9350;53.176;8.194;2022-09-12T08:59:48;28.77;;;19.02;;
18443;SDS011;9350;53.176;8.194;2022-09-12T09:02:27;34.13;;;19.50;;
18443;SDS011;9350;53.176;8.194;2022-09-12T09:05:06;35.08;;;20.08;;
18443;SDS011;9350;53.176;8.194;2022-09-12T09:08:03;37.58;;;20.83;;
18443;SDS011;9350;53.176;8.194;2022-09-12T09:10:40;32.75;;;19.88;;
18443;SDS011;9350;53.176;8.194;2022-09-12T09:13:18;33.88;;;20.02;;
18443;SDS011;9350;53.176;8.194;2022-09-12T09:16:15;35.80;;;20.33;;
18443;SDS011;9350;53.176;8.194;2022-09-12T09:18:50;37.30;;;19.55;;
18443;SDS011;9350;53.176;8.194;2022-09-12T09:21:20;31.83;;;19.45;;
18443;SDS011;9350;53.176;8.194;2022-09-12T09:23:52;29.58;;;19.10;;
18443;SDS011;9350;53.176;8.194;2022-09-12T09:26:25;31.98;;;18.42;;
18443;SDS011;9350;53.176;8.194;2022-09-12T09:28:56;31.95;;;18.50;;
18443;SDS011;9350;53.176;8.194;2022-09-12T09:31:28;32.38;;;19.48;;
18443;SDS011;9350;53.176;8.194;2022-09-12T09:33:59;27.67;;;18.50;;
18443;SDS011;9350;53.176;8.194;2022-09-12T09:36:30;30.60;;;18.38;;
18443;SDS011;9350;53.176;8.194;2022-09-12T09:39:04;26.77;;;17.35;;
18443;SDS011;9350;53.176;8.194;2022-09-12T09:41:41;29.05;;;17.90;;
18443;SDS011;9350;53.176;8.194;2022-09-12T09:44:17;32.88;;;16.85;;
18443;SDS011;9350;53.176;8.194;2022-09-12T09:46:44;32.08;;;17.90;;
18443;SDS011;9350;53.176;8.194;2022-09-12T09:49:13;27.05;;;16.35;;
18443;SDS011;9350;53.176;8.194;2022-09-12T09:51:42;25.70;;;16.85;;
18443;SDS011;9350;53.176;8.194;2022-09-12T09:54:12;26.30;;;16.17;;
18443;SDS011;9350;53.176;8.194;2022-09-12T09:56:43;24.88;;;15.25;;
18443;SDS011;9350;53.176;8.194;2022-09-12T09:59:11;26.08;;;15.80;;
18443;SDS011;9350;53.176;8.194;2022-09-12T10:01:45;27.25;;;16.20;;
18443;SDS011;9350;53.176;8.194;2022-09-12T10:04:18;24.83;;;15.40;;
18443;SDS011;9350;53.176;8.194;2022-09-12T10:06:46;24.88;;;14.30;;
18443;SDS011;9350;53.176;8.194;2022-09-12T10:09:17;24.73;;;13.77;;
18443;SDS011;9350;53.176;8.194;2022-09-12T10:11:46;23.45;;;14.50;;
18443;SDS011;9350;53.176;8.194;2022-09-12T10:14:26;20.45;;;12.52;;
18443;SDS011;9350;53.176;8.194;2022-09-12T10:17:03;22.98;;;12.88;;
18443;SDS011;9350;53.176;8.194;2022-09-12T10:19:47;20.45;;;12.18;;
18443;SDS011;9350;53.176;8.194;2022-09-12T10:22:15;20.13;;;11.25;;
18443;SDS011;9350;53.176;8.194;2022-09-12T10:24:45;19.42;;;11.40;;
18443;SDS011;9350;53.176;8.194;2022-09-12T10:27:15;19.02;;;10.20;;
18443;SDS011;9350;53.176;8.194;2022-09-12T10:29:45;16.40;;;10.20;;
18443;SDS011;9350;53.176;8.194;2022-09-12T10:32:23;15.90;;;10.45;;
18443;SDS011;9350;53.176;8.194;2022-09-12T10:34:55;15.13;;;9.85;;
18443;SDS011;9350;53.176;8.194;2022-09-12T10:37:25;14.63;;;9.18;;
18443;SDS011;9350;53.176;8.194;2022-09-12T10:39:57;13.52;;;9.52;;
18443;SDS011;9350;53.176;8.194;2022-09-12T10:42:41;14.35;;;7.82;;
18443;SDS011;9350;53.176;8.194;2022-09-12T10:45:21;13.43;;;8.35;;
18443;SDS011;9350;53.176;8.194;2022-09-12T10:47:50;10.20;;;7.22;;
18443;SDS011;9350;53.176;8.194;2022-09-12T10:50:21;12.57;;;6.45;;
18443;SDS011;9350;53.176;8.194;2022-09-12T10:52:50;10.20;;;5.80;;
18443;SDS011;9350;53.176;8.194;2022-09-12T10:55:17;10.52;;;6.90;;
18443;SDS011;9350;53.176;8.194;2022-09-12T11:00:56;7.13;;;5.50;;
18443;SDS011;9350;53.176;8.194;2022-09-12T11:03:34;7.25;;;5.43;;
18443;SDS011;9350;53.176;8.194;2022-09-12T11:06:16;8.63;;;5.70;;
18443;SDS011;9350;53.176;8.194;2022-09-12T11:08:50;8.15;;;5.50;;
18443;SDS011;9350;53.176;8.194;2022-09-12T11:11:33;12.13;;;5.05;;
18443;SDS011;9350;53.176;8.194;2022-09-12T11:14:12;8.23;;;5.20;;
18443;SDS011;9350;53.176;8.194;2022-09-12T11:17:00;8.20;;;5.70;;
18443;SDS011;9350;53.176;8.194;2022-09-12T11:19:43;7.07;;;5.20;;
18443;SDS011;9350;53.176;8.194;2022-09-12T11:22:28;9.77;;;6.10;;
18443;SDS011;9350;53.176;8.194;2022-09-12T11:25:09;9.27;;;5.55;;
18443;SDS011;9350;53.176;8.194;2022-09-12T11:27:48;8.40;;;5.85;;
18443;SDS011;9350;53.176;8.194;2022-09-12T11:30:22;7.93;;;5.55;;
18443;SDS011;9350;53.176;8.194;2022-09-12T11:32:56;8.80;;;5.88;;
18443;SDS011;9350;53.176;8.194;2022-09-12T11:35:30;7.80;;;5.22;;
18443;SDS011;9350;53.176;8.194;2022-09-12T11:38:02;7.45;;;5.63;;
18443;SDS011;9350;53.176;8.194;2022-09-12T11:40:47;7.85;;;5.53;;
18443;SDS011;9350;53.176;8.194;2022-09-12T11:43:21;7.95;;;5.45;;
18443;SDS011;9350;53.176;8.194;2022-09-12T11:45:55;7.28;;;5.97;;
18443;SDS011;9350;53.176;8.194;2022-09-12T11:48:29;6.88;;;5.22;;
18443;SDS011;9350;53.176;8.194;2022-09-12T11:51:01;7.78;;;5.38;;
18443;SDS011;9350;53.176;8.194;2022-09-12T11:53:34;11.35;;;6.80;;
18443;SDS011;9350;53.176;8.194;2022-09-12T11:56:04;13.65;;;5.90;;
18443;SDS011;9350;53.176;8.194;2022-09-12T11:58:37;10.80;;;5.95;;
18443;SDS011;9350;53.176;8.194;2022-09-12T12:01:08;10.60;;;6.40;;
18443;SDS011;9350;53.176;8.194;2022-09-12T12:03:40;9.07;;;6.70;;
18443;SDS011;9350;53.176;8.194;2022-09-12T12:06:10;11.18;;;7.82;;
18443;SDS011;9350;53.176;8.194;2022-09-12T12:08:44;10.85;;;7.30;;
18443;SDS011;9350;53.176;8.194;2022-09-12T12:11:12;11.40;;;6.57;;
18443;SDS011;9350;53.176;8.194;2022-09-12T12:13:45;12.00;;;7.25;;
18443;SDS011;9350;53.176;8.194;2022-09-12T12:16:17;12.07;;;6.22;;
18443;SDS011;9350;53.176;8.194;2022-09-12T12:18:51;9.60;;;6.28;;
18443;SDS011;9350;53.176;8.194;2022-09-12T12:21:20;11.50;;;7.10;;
18443;SDS011;9350;53.176;8.194;2022-09-12T12:24:12;10.70;;;6.40;;
18443;SDS011;9350;53.176;8.194;2022-09-12T12:26:42;11.10;;;6.65;;
18443;SDS011;9350;53.176;8.194;2022-09-12T12:29:34;13.25;;;6.55;;
18443;SDS011;9350;53.176;8.194;2022-09-12T12:32:19;12.20;;;7.28;;
18443;SDS011;9350;53.176;8.194;2022-09-12T12:34:47;13.32;;;6.85;;
18443;SDS011;9350;53.176;8.194;2022-09-12T12:40:25;12.40;;;7.30;;
18443;SDS011;9350;53.176;8.194;2022-09-12T12:42:57;12.88;;;7.60;;
18443;SDS011;9350;53.176;8.194;2022-09-12T12:45:57;14.63;;;7.50;;
18443;SDS011;9350;53.176;8.194;2022-09-12T12:48:34;11.95;;;7.90;;
18443;SDS011;9350;53.176;8.194;2022-09-12T12:51:37;12.30;;;7.43;;
18443;SDS011;9350;53.176;8.194;2022-09-12T12:54:25;13.75;;;7.88;;
18443;SDS011;9350;53.176;8.194;2022-09-12T12:57:18;16.42;;;9.23;;
18443;SDS011;9350;53.176;8.194;2022-09-12T12:59:51;13.00;;;7.75;;
18443;SDS011;9350;53.176;8.194;2022-09-12T13:02:21;11.00;;;6.68;;
18443;SDS011;9350;53.176;8.194;2022-09-12T13:04:52;13.05;;;6.53;;
18443;SDS011;9350;53.176;8.194;2022-09-12T13:07:22;11.23;;;6.18;;
18443;SDS011;9350;53.176;8.194;2022-09-12T13:09:58;13.77;;;7.00;;
18443;SDS011;9350;53.176;8.194;2022-09-12T13:12:28;11.55;;;6.65;;
18443;SDS011;9350;53.176;8.194;2022-09-12T13:14:57;13.52;;;7.38;;
18443;SDS011;9350;53.176;8.194;2022-09-12T13:17:30;12.82;;;6.18;;
18443;SDS011;9350;53.176;8.194;2022-09-12T13:20:04;9.02;;;5.32;;
18443;SDS011;9350;53.176;8.194;2022-09-12T13:22:47;10.43;;;6.05;;
18443;SDS011;9350;53.176;8.194;2022-09-12T13:28:03;10.73;;;5.90;;
18443;SDS011;9350;53.176;8.194;2022-09-12T13:30:32;6.45;;;5.13;;
18443;SDS011;9350;53.176;8.194;2022-09-12T13:35:57;9.85;;;6.10;;
18443;SDS011;9350;53.176;8.194;2022-09-12T13:38:48;9.75;;;5.75;;
18443;SDS011;9350;53.176;8.194;2022-09-12T13:41:26;9.38;;;6.28;;
18443;SDS011;9350;53.176;8.194;2022-09-12T13:44:17;10.30;;;6.40;;
18443;SDS011;9350;53.176;8.194;2022-09-12T13:46:47;9.05;;;6.20;;
18443;SDS011;9350;53.176;8.194;2022-09-12T13:49:17;11.30;;;6.55;;
18443;SDS011;9350;53.176;8.194;2022-09-12T13:51:50;12.23;;;7.60;;
18443;SDS011;9350;53.176;8.194;2022-09-12T13:54:24;8.95;;;6.15;;
18443;SDS011;9350;53.176;8.194;2022-09-12T13:56:52;9.50;;;5.80;;
18443;SDS011;9350;53.176;8.194;2022-09-12T13:59:20;9.98;;;5.90;;
18443;SDS011;9350;53.176;8.194;2022-09-12T14:01:47;7.35;;;5.60;;
18443;SDS011;9350;53.176;8.194;2022-09-12T14:04:15;11.13;;;6.15;;
18443;SDS011;9350;53.176;8.194;2022-09-12T14:07:02;10.50;;;6.10;;
18443;SDS011;9350;53.176;8.194;2022-09-12T14:09:37;9.60;;;6.05;;
18443;SDS011;9350;53.176;8.194;2022-09-12T14:12:09;11.80;;;6.28;;
18443;SDS011;9350;53.176;8.194;2022-09-12T14:14:47;10.52;;;6.00;;
18443;SDS011;9350;53.176;8.194;2022-09-12T14:17:16;13.32;;;6.22;;
18443;SDS011;9350;53.176;8.194;2022-09-12T14:19:44;8.02;;;5.68;;
18443;SDS011;9350;53.176;8.194;2022-09-12T14:22:12;8.25;;;5.28;;
18443;SDS011;9350;53.176;8.194;2022-09-12T14:24:42;6.90;;;5.38;;
18443;SDS011;9350;53.176;8.194;2022-09-12T14:27:15;12.23;;;6.13;;
18443;SDS011;9350;53.176;8.194;2022-09-12T14:29:44;7.88;;;5.15;;
18443;SDS011;9350;53.176;8.194;2022-09-12T14:32:17;8.23;;;5.07;;
18443;SDS011;9350;53.176;8.194;2022-09-12T14:35:04;8.52;;;5.22;;
18443;SDS011;9350;53.176;8.194;2022-09-12T14:37:32;8.35;;;5.30;;
18443;SDS011;9350;53.176;8.194;2022-09-12T14:39:59;7.65;;;5.20;;
18443;SDS011;9350;53.176;8.194;2022-09-12T14:42:27;8.20;;;5.80;;
18443;SDS011;9350;53.176;8.194;2022-09-12T14:44:57;9.32;;;5.30;;
18443;SDS011;9350;53.176;8.194;2022-09-12T14:47:31;6.72;;;5.15;;
18443;SDS011;9350;53.176;8.194;2022-09-12T14:50:11;6.88;;;4.78;;
18443;SDS011;9350;53.176;8.194;2022-09-12T14:52:41;8.25;;;5.35;;
18443;SDS011;9350;53.176;8.194;2022-09-12T14:55:19;9.20;;;5.15;;
18443;SDS011;9350;53.176;8.194;2022-09-12T14:58:06;6.50;;;4.07;;
18443;SDS011;9350;53.176;8.194;2022-09-12T15:00:50;4.70;;;4.20;;
18443;SDS011;9350;53.176;8.194;2022-09-12T15:03:24;8.32;;;4.55;;
18443;SDS011;9350;53.176;8.194;2022-09-12T15:05:53;5.65;;;4.80;;
18443;SDS011;9350;53.176;8.194;2022-09-12T15:08:20;6.35;;;4.43;;
18443;SDS011;9350;53.176;8.194;2022-09-12T15:10:47;5.82;;;4.47;;
18443;SDS011;9350;53.176;8.194;2022-09-12T15:13:15;7.88;;;4.95;;
18443;SDS011;9350;53.176;8.194;2022-09-12T15:15:47;6.72;;;5.32;;
18443;SDS011;9350;53.176;8.194;2022-09-12T15:18:15;6.00;;;4.90;;
18443;SDS011;9350;53.176;8.194;2022-09-12T15:20:45;5.00;;;4.18;;
18443;SDS011;9350;53.176;8.194;2022-09-12T15:23:15;7.40;;;4.97;;
18443;SDS011;9350;53.176;8.194;2022-09-12T15:25:44;6.78;;;4.13;;
18443;SDS011;9350;53.176;8.194;2022-09-12T15:28:14;5.82;;;4.00;;
18443;SDS011;9350;53.176;8.194;2022-09-12T15:30:43;7.40;;;4.55;;
18443;SDS011;9350;53.176;8.194;2022-09-12T15:33:11;5.78;;;3.92;;
18443;SDS011;9350;53.176;8.194;2022-09-12T15:35:38;4.88;;;4.00;;
18443;SDS011;9350;53.176;8.194;2022-09-12T15:38:12;13.43;;;4.70;;
18443;SDS011;9350;53.176;8.194;2022-09-12T15:40:39;6.13;;;4.55;;